Time;durP1;ratioP1;P1;durP2;ratioP2;P2;SDS_P1;SDS_P2;PMS_P1;PMS_P2;Temp;Humidity;BMP_temperature;BMP_pressure;BME280_temperature;BME280_humidity;BME280_pressure;Samples;Min_cycle;Max_cycle;Signal;HPM_P1;HPM_P2
2021/12/10 00:01:11;;;;;;;39.33;25.02;;;;;;;2.96;90.19;99958.28;1986794;29;45190;-62
2021/12/10 00:02:15;;;;;;;33.80;24.05;;;;;;;2.96;90.24;99960.91;1986448;29;45578;-65
2021/12/10 00:03:31;;;;;;;36.58;23.15;;;;;;;2.97;90.03;99958.25;1971138;30;43454;-62
2021/12/10 00:04:38;;;;;;;34.88;23.52;;;;;;;2.96;90.22;99953.88;1974986;29;45641;-62
2021/12/10 00:06:00;;;;;;;32.67;22.02;;;;;;;2.97;90.61;99954.75;1986393;29;45374;-62
2021/12/10 00:07:15;;;;;;;39.70;24.98;;;;;;;2.96;90.39;99959.16;1986710;29;44396;-62
2021/12/10 00:08:18;;;;;;;37.22;24.25;;;;;;;2.95;90.40;99957.41;1986600;29;44095;-63
2021/12/10 00:09:26;;;;;;;45.20;27.67;;;;;;;2.95;90.68;99957.41;1986400;29;44833;-62
2021/12/10 00:10:38;;;;;;;30.92;22.17;;;;;;;2.94;90.39;99953.00;1986988;29;45335;-63
2021/12/10 00:11:47;;;;;;;34.08;23.60;;;;;;;2.95;90.54;99953.91;1986594;29;43085;-63
2021/12/10 00:12:53;;;;;;;33.90;22.77;;;;;;;2.93;90.81;99943.31;1986536;29;45115;-62
2021/12/10 00:13:55;;;;;;;36.25;24.92;;;;;;;2.94;90.52;99955.63;1986469;29;43220;-62
2021/12/10 00:14:57;;;;;;;34.17;23.00;;;;;;;2.95;90.84;99949.47;1986589;29;46506;-62
2021/12/10 00:16:02;;;;;;;32.25;22.92;;;;;;;2.95;90.58;99946.81;1987270;29;20889;-62
2021/12/10 00:17:08;;;;;;;36.38;24.70;;;;;;;2.95;90.50;99946.81;1986045;29;45783;-62
2021/12/10 00:18:16;;;;;;;35.05;24.17;;;;;;;2.95;90.61;99949.47;1986370;29;44873;-62
2021/12/10 00:20:26;;;;;;;32.35;22.77;;;;;;;2.95;90.81;99941.53;1991632;29;45351;-62
2021/12/10 00:21:29;;;;;;;32.53;23.60;;;;;;;2.96;90.75;99938.03;1993939;29;45045;-62
2021/12/10 00:22:46;;;;;;;36.30;23.63;;;;;;;2.95;90.84;99941.53;1993795;29;45193;-61
2021/12/10 00:23:50;;;;;;;38.67;23.95;;;;;;;2.95;90.65;99941.53;1993491;29;46237;-64
2021/12/10 00:24:54;;;;;;;35.67;23.52;;;;;;;2.95;90.32;99933.59;1994356;29;45106;-64
2021/12/10 00:26:00;;;;;;;32.30;22.30;;;;;;;2.97;90.49;99930.97;1994267;29;30844;-64
2021/12/10 00:27:07;;;;;;;35.80;22.92;;;;;;;2.98;90.34;99925.66;1993509;29;43540;-63
2021/12/10 00:28:23;;;;;;;35.75;23.85;;;;;;;3.00;90.33;99933.59;1985872;29;44475;-62
2021/12/10 00:29:25;;;;;;;36.55;23.15;;;;;;;2.98;90.63;99932.69;1988499;29;44843;-62
2021/12/10 00:30:34;;;;;;;32.83;22.95;;;;;;;2.99;90.55;99937.97;1994021;29;45321;-62
2021/12/10 00:31:49;;;;;;;35.28;23.30;;;;;;;2.98;90.39;99935.34;1993382;29;44918;-62
2021/12/10 00:33:03;;;;;;;33.13;22.08;;;;;;;2.97;90.21;99921.25;1985724;29;43695;-63
2021/12/10 00:34:12;;;;;;;34.75;22.10;;;;;;;2.98;89.99;99925.66;1989143;29;45198;-62
2021/12/10 00:35:23;;;;;;;29.95;21.33;;;;;;;2.98;90.12;99925.66;1994072;29;44922;-62
2021/12/10 00:36:25;;;;;;;31.38;21.23;;;;;;;2.98;90.19;99925.66;1993583;29;44252;-62
2021/12/10 00:37:27;;;;;;;34.22;21.42;;;;;;;2.98;90.17;99923.00;1994087;29;43131;-63
2021/12/10 00:38:30;;;;;;;30.00;21.42;;;;;;;3.00;90.13;99921.22;1993717;29;46210;-62
2021/12/10 00:39:38;;;;;;;33.42;22.85;;;;;;;3.00;89.99;99934.44;1993909;29;45289;-63
2021/12/10 00:40:42;;;;;;;29.02;20.50;;;;;;;3.00;90.54;99930.94;1993906;29;46502;-63
2021/12/10 00:41:44;;;;;;;35.08;23.05;;;;;;;3.00;89.92;99928.28;1994157;29;44746;-62
2021/12/10 00:42:46;;;;;;;31.98;20.83;;;;;;;2.99;90.15;99927.41;1993707;29;45459;-63
2021/12/10 00:43:48;;;;;;;32.72;22.50;;;;;;;2.99;90.25;99929.16;1993713;29;44827;-62
2021/12/10 00:44:51;;;;;;;32.50;21.45;;;;;;;2.97;90.34;99931.81;1993578;29;43878;-63
2021/12/10 00:45:53;;;;;;;34.22;23.42;;;;;;;2.98;90.13;99927.41;1993962;29;45316;-62
2021/12/10 00:46:55;;;;;;;34.35;22.67;;;;;;;2.97;90.63;99923.88;1993354;29;44973;-62
2021/12/10 00:47:57;;;;;;;30.77;20.10;;;;;;;2.98;90.67;99928.31;1994056;29;42217;-62
2021/12/10 00:48:59;;;;;;;35.15;22.92;;;;;;;2.97;90.28;99939.75;1994013;29;45646;-63
2021/12/10 00:50:03;;;;;;;30.73;22.50;;;;;;;2.99;90.24;99931.81;1994411;29;33077;-62
2021/12/10 00:51:09;;;;;;;30.70;20.92;;;;;;;2.98;90.21;99925.66;1993487;29;46372;-62
2021/12/10 00:52:15;;;;;;;33.45;23.17;;;;;;;2.98;90.23;99925.66;1993859;29;44416;-62
2021/12/10 00:53:17;;;;;;;34.78;22.13;;;;;;;2.98;90.45;99927.41;1994048;29;40373;-63
2021/12/10 00:54:19;;;;;;;33.03;20.17;;;;;;;2.98;90.42;99930.94;1993458;29;44445;-63
2021/12/10 00:55:29;;;;;;;31.48;21.00;;;;;;;2.98;90.49;99920.38;1994951;29;20101;-62
2021/12/10 00:56:31;;;;;;;33.90;22.92;;;;;;;2.98;90.42;99922.13;1993721;29;44969;-62
2021/12/10 00:57:33;;;;;;;35.40;24.15;;;;;;;2.99;90.56;99913.31;1994258;29;43002;-63
2021/12/10 00:58:37;;;;;;;35.80;24.88;;;;;;;3.00;90.55;99918.59;1993991;29;44227;-63
2021/12/10 00:59:41;;;;;;;31.83;22.38;;;;;;;3.02;90.39;99921.22;1993951;29;46824;-62
2021/12/10 01:00:50;;;;;;;39.85;25.90;;;;;;;3.02;90.49;99916.81;1985623;29;43201;-63
2021/12/10 01:01:53;;;;;;;36.38;24.75;;;;;;;3.01;90.78;99915.03;1979545;29;44642;-64
2021/12/10 01:02:56;;;;;;;35.08;24.55;;;;;;;3.01;90.64;99915.03;1986824;29;44603;-62
2021/12/10 01:04:22;;;;;;;38.13;24.45;;;;;;;3.02;90.66;99913.28;1994245;29;28848;-62
2021/12/10 01:05:25;;;;;;;38.45;24.90;;;;;;;3.01;90.73;99909.75;1993764;29;44352;-62
2021/12/10 01:06:28;;;;;;;35.88;24.95;;;;;;;3.01;90.43;99915.03;1993528;29;44664;-64
2021/12/10 01:07:34;;;;;;;39.22;25.60;;;;;;;3.02;90.49;99914.16;1994890;29;20097;-62
2021/12/10 01:08:40;;;;;;;35.47;24.55;;;;;;;3.03;90.64;99910.63;1993836;29;43536;-63
2021/12/10 01:09:48;;;;;;;38.70;25.33;;;;;;;3.05;90.56;99906.22;1994097;29;34648;-63
2021/12/10 01:11:00;;;;;;;38.25;24.80;;;;;;;3.03;90.37;99902.72;1993568;29;46427;-62
2021/12/10 01:12:10;;;;;;;40.50;26.27;;;;;;;3.03;90.27;99897.41;1993823;29;44583;-62
2021/12/10 01:13:16;;;;;;;;;;;;;;;3.02;90.10;99895.66;1994280;29;40739;-63
2021/12/10 01:14:51;;;;;;;37.20;24.80;;;;;;;3.03;90.47;99896.50;1994584;29;19987;-63
2021/12/10 01:23:43;;;;;;;39.53;25.20;;;;;;;3.03;90.49;99897.41;1994109;29;36332;-63
2021/12/10 01:24:53;;;;;;;45.42;28.10;;;;;;;2.99;90.52;99871.00;1993600;29;34224;-63
2021/12/10 01:26:09;;;;;;;47.05;27.38;;;;;;;2.99;90.83;99868.34;1993707;29;45838;-63
2021/12/10 01:27:25;;;;;;;44.40;25.55;;;;;;;2.98;90.80;99870.13;1993601;29;45214;-63
2021/12/10 01:28:27;;;;;;;38.65;25.95;;;;;;;2.97;90.61;99871.00;1993884;29;37958;-63
2021/12/10 01:29:38;;;;;;;45.58;29.02;;;;;;;2.96;90.91;99869.28;1993290;29;42103;-63
2021/12/10 01:30:40;;;;;;;47.53;27.55;;;;;;;2.96;90.93;99869.28;1992967;29;44385;-63
2021/12/10 01:31:43;;;;;;;46.15;27.17;;;;;;;2.94;91.27;99860.47;1993848;29;40877;-63
2021/12/10 01:32:52;;;;;;;48.30;29.70;;;;;;;2.94;91.43;99878.97;1993580;29;44104;-63
2021/12/10 01:33:54;;;;;;;46.50;29.15;;;;;;;2.94;91.14;99873.69;1993594;29;46547;-63
2021/12/10 01:34:57;;;;;;;48.70;29.55;;;;;;;2.93;91.35;99879.88;1993528;29;42190;-63
2021/12/10 01:36:07;;;;;;;42.05;26.63;;;;;;;2.93;91.28;99879.88;1993728;29;43418;-63
2021/12/10 01:37:10;;;;;;;42.67;26.10;;;;;;;2.93;91.27;99874.59;1994018;29;34150;-63
2021/12/10 01:38:13;;;;;;;52.55;29.40;;;;;;;2.93;90.94;99869.28;1985588;29;20154;-63
2021/12/10 01:39:22;;;;;;;49.75;28.80;;;;;;;2.91;91.32;99873.72;1986591;29;44751;-63
2021/12/10 01:40:26;;;;;;;46.22;29.05;;;;;;;2.92;91.30;99869.31;1986911;29;43179;-63
2021/12/10 01:41:33;;;;;;;42.83;26.02;;;;;;;2.93;90.96;99877.22;1986618;29;45356;-63
2021/12/10 01:42:43;;;;;;;45.42;28.25;;;;;;;2.92;91.09;99871.94;1993424;29;43497;-62
2021/12/10 01:43:51;;;;;;;40.22;26.00;;;;;;;2.92;91.14;99872.81;1993535;29;43862;-62
2021/12/10 01:44:58;;;;;;;44.63;27.60;;;;;;;2.92;91.07;99871.94;1992943;29;46546;-62
2021/12/10 01:46:10;;;;;;;44.28;26.10;;;;;;;2.93;91.19;99871.06;1993263;29;44844;-62
2021/12/10 01:47:17;;;;;;;39.75;24.90;;;;;;;2.92;91.03;99871.94;1993925;29;45699;-62
2021/12/10 01:48:50;;;;;;;41.90;24.73;;;;;;;2.91;91.05;99871.09;1977994;29;46081;-62
2021/12/10 01:49:54;;;;;;;38.13;23.38;;;;;;;2.91;90.82;99863.16;1986842;29;43872;-62
2021/12/10 01:51:01;;;;;;;43.75;28.00;;;;;;;2.90;91.16;99869.31;1985389;29;43289;-62
2021/12/10 01:52:05;;;;;;;40.08;25.00;;;;;;;2.91;90.81;99873.72;1986682;29;44681;-63
2021/12/10 01:53:12;;;;;;;39.13;24.58;;;;;;;2.91;91.00;99870.19;1993647;29;43904;-62
2021/12/10 01:54:28;;;;;;;41.13;25.30;;;;;;;2.89;90.66;99864.94;1985601;29;31382;-61
2021/12/10 01:55:31;;;;;;;38.50;23.67;;;;;;;2.89;91.20;99867.59;1988234;29;44828;-62
2021/12/10 01:56:38;;;;;;;38.22;24.83;;;;;;;2.88;91.25;99865.81;1993668;29;32685;-61
2021/12/10 01:57:40;;;;;;;40.30;24.52;;;;;;;2.88;90.97;99865.81;1993563;29;44906;-62
2021/12/10 01:58:44;;;;;;;39.72;24.95;;;;;;;2.88;91.12;99867.59;1993540;29;44315;-62
2021/12/10 01:59:48;;;;;;;40.58;25.10;;;;;;;2.91;91.14;99864.91;1993963;29;35866;-62
2021/12/10 02:01:04;;;;;;;42.92;27.20;;;;;;;2.88;91.07;99865.81;1993598;29;44543;-62
2021/12/10 02:02:19;;;;;;;39.63;25.70;;;;;;;2.88;91.60;99863.16;1993269;29;44742;-61
2021/12/10 02:03:21;;;;;;;39.20;24.88;;;;;;;2.89;91.08;99859.66;1993479;29;44849;-62
2021/12/10 02:04:29;;;;;;;38.53;25.15;;;;;;;2.88;91.30;99865.81;1993369;29;43863;-62
2021/12/10 02:05:32;;;;;;;36.80;24.00;;;;;;;2.87;91.09;99853.47;1993604;29;44982;-62
2021/12/10 02:06:35;;;;;;;34.33;23.35;;;;;;;2.87;91.07;99856.13;1992905;29;43113;-62
2021/12/10 02:07:37;;;;;;;39.17;24.73;;;;;;;2.87;91.38;99864.03;1993288;29;45355;-63
2021/12/10 02:08:41;;;;;;;36.92;24.40;;;;;;;2.85;91.40;99856.16;1993402;29;41593;-62
2021/12/10 02:09:45;;;;;;;37.08;24.20;;;;;;;2.86;91.09;99857.03;1994827;29;45595;-62
2021/12/10 02:10:47;;;;;;;42.08;25.35;;;;;;;2.87;91.16;99858.75;1988073;29;40484;-63
2021/12/10 02:11:49;;;;;;;36.15;23.27;;;;;;;2.86;91.28;99857.03;1986392;29;44652;-62
2021/12/10 02:12:51;;;;;;;36.42;23.70;;;;;;;2.84;91.07;99859.69;1993418;29;44044;-62
2021/12/10 02:13:55;;;;;;;37.42;23.13;;;;;;;2.85;91.20;99853.50;1993464;29;45229;-62
2021/12/10 02:15:00;;;;;;;37.05;24.98;;;;;;;2.85;90.91;99853.50;1993188;29;45952;-62
2021/12/10 02:16:05;;;;;;;38.47;24.55;;;;;;;2.83;91.53;99844.69;1993844;29;32403;-62
2021/12/10 02:17:07;;;;;;;36.50;22.83;;;;;;;2.83;91.23;99849.13;1993174;29;46064;-62
2021/12/10 02:18:12;;;;;;;37.13;23.77;;;;;;;2.83;91.35;99843.81;1993429;29;44314;-62
2021/12/10 02:19:15;;;;;;;36.55;24.48;;;;;;;2.83;91.30;99844.69;1994063;29;24576;-62
2021/12/10 02:20:26;;;;;;;39.67;23.90;;;;;;;2.82;91.29;99839.44;1993112;29;44541;-62
2021/12/10 02:21:30;;;;;;;33.25;22.50;;;;;;;2.83;91.10;99838.53;1992614;29;44070;-63
2021/12/10 02:22:32;;;;;;;38.05;23.60;;;;;;;2.83;91.39;99835.91;1993459;29;44422;-62
2021/12/10 02:23:41;;;;;;;35.80;23.10;;;;;;;2.83;90.83;99833.25;1993420;29;42839;-62
2021/12/10 02:24:43;;;;;;;35.00;23.85;;;;;;;2.82;91.31;99840.31;1991572;29;39254;-62
2021/12/10 02:25:45;;;;;;;34.67;22.52;;;;;;;2.82;91.19;99829.75;1992629;29;44352;-61
2021/12/10 02:26:55;;;;;;;32.47;23.80;;;;;;;2.81;91.33;99827.97;1986510;29;44310;-62
2021/12/10 02:27:58;;;;;;;39.60;23.63;;;;;;;2.81;90.87;99833.25;1985304;29;46008;-62
2021/12/10 02:29:00;;;;;;;34.05;23.15;;;;;;;2.80;91.00;99820.06;1985607;29;44085;-62
2021/12/10 02:30:07;;;;;;;33.40;21.95;;;;;;;2.81;91.08;99821.81;1985537;29;45074;-62
2021/12/10 02:31:12;;;;;;;34.30;22.40;;;;;;;2.80;90.99;99820.06;1985708;29;44577;-62
2021/12/10 02:32:18;;;;;;;33.20;23.08;;;;;;;2.78;91.06;99817.44;1986421;29;20132;-62
2021/12/10 02:33:22;;;;;;;35.35;23.15;;;;;;;2.78;91.13;99821.84;1986069;29;34303;-62
2021/12/10 02:34:26;;;;;;;33.60;22.98;;;;;;;2.78;91.08;99814.81;1990447;29;43880;-63
2021/12/10 02:35:29;;;;;;;34.15;22.50;;;;;;;2.78;91.44;99814.81;1993202;29;44463;-62
2021/12/10 02:36:31;;;;;;;31.33;22.63;;;;;;;2.78;91.23;99814.81;1992720;29;47204;-62
2021/12/10 02:37:34;;;;;;;28.70;19.67;;;;;;;2.78;90.94;99816.56;1993324;29;45287;-63
2021/12/10 02:38:40;;;;;;;31.50;21.55;;;;;;;2.77;91.58;99809.53;1993160;29;35332;-62
2021/12/10 02:39:43;;;;;;;35.05;22.17;;;;;;;2.76;90.89;99819.22;1991880;29;43595;-62
2021/12/10 02:40:48;;;;;;;38.00;22.75;;;;;;;2.78;91.13;99811.28;1995578;29;45084;-62
2021/12/10 02:41:50;;;;;;;33.03;21.67;;;;;;;2.76;91.12;99808.63;1985167;29;44823;-64
2021/12/10 02:42:54;;;;;;;36.17;23.80;;;;;;;2.77;91.04;99809.53;1985579;29;45232;-62
2021/12/10 02:43:59;;;;;;;32.85;22.50;;;;;;;2.76;91.31;99813.06;1994035;29;20954;-63
2021/12/10 02:45:04;;;;;;;31.27;21.95;;;;;;;2.76;91.00;99808.63;1993164;29;43382;-62
2021/12/10 02:46:06;;;;;;;30.45;21.52;;;;;;;2.78;91.01;99805.97;1993134;29;44510;-62
2021/12/10 02:47:08;;;;;;;30.15;22.13;;;;;;;2.79;91.13;99807.75;1993657;29;36242;-62
2021/12/10 02:48:13;;;;;;;33.63;22.55;;;;;;;2.78;91.05;99801.59;1992986;29;44364;-61
2021/12/10 02:49:16;;;;;;;28.98;20.65;;;;;;;2.79;91.15;99799.81;1993303;29;45113;-63
2021/12/10 02:50:22;;;;;;;35.08;23.33;;;;;;;2.77;91.26;99791.03;1993183;29;43464;-62
2021/12/10 02:51:25;;;;;;;35.13;22.48;;;;;;;2.77;91.01;99799.81;1993383;29;38472;-63
2021/12/10 02:52:28;;;;;;;31.92;22.20;;;;;;;2.77;91.24;99791.91;1994312;29;20943;-63
2021/12/10 02:53:34;;;;;;;35.03;22.80;;;;;;;2.77;91.27;99793.69;1985208;29;45350;-62
2021/12/10 02:54:37;;;;;;;33.58;22.80;;;;;;;2.77;91.24;99793.69;1985456;29;46668;-63
2021/12/10 02:55:39;;;;;;;31.85;21.83;;;;;;;2.77;91.30;99781.31;1985499;29;37220;-63
2021/12/10 02:56:41;;;;;;;28.80;21.98;;;;;;;2.78;91.30;99788.38;1987194;29;44270;-62
2021/12/10 02:57:47;;;;;;;32.58;22.05;;;;;;;2.76;91.01;99787.50;1993196;29;46262;-62
2021/12/10 02:58:53;;;;;;;32.10;21.40;;;;;;;2.77;90.86;99788.38;1993315;29;42637;-64
2021/12/10 02:59:58;;;;;;;35.00;23.00;;;;;;;2.78;91.01;99779.56;1985069;29;45401;-64
2021/12/10 03:01:14;;;;;;;32.20;21.05;;;;;;;2.78;91.13;99788.38;1986342;29;39052;-64
2021/12/10 03:02:21;;;;;;;30.92;21.30;;;;;;;2.77;91.13;99789.25;1993063;29;44026;-61
2021/12/10 03:03:25;;;;;;;31.70;21.98;;;;;;;2.78;91.03;99780.44;1985081;29;46331;-62
2021/12/10 03:04:27;;;;;;;33.75;22.98;;;;;;;2.77;90.89;99780.47;1985685;29;44270;-62
2021/12/10 03:05:29;;;;;;;31.83;22.27;;;;;;;2.78;91.05;99784.84;1993155;29;45816;-62
2021/12/10 03:06:32;;;;;;;34.97;22.92;;;;;;;2.78;91.06;99787.47;1993125;29;39889;-62
2021/12/10 03:07:37;;;;;;;30.10;21.20;;;;;;;2.76;90.98;99782.22;1993333;29;45460;-62
2021/12/10 03:08:43;;;;;;;31.70;22.00;;;;;;;2.78;91.14;99787.47;1984996;29;44929;-64
2021/12/10 03:09:49;;;;;;;28.92;21.02;;;;;;;2.79;91.25;99791.88;1978131;29;44681;-62
2021/12/10 03:10:54;;;;;;;34.97;22.20;;;;;;;2.78;91.00;99788.38;1987169;29;45351;-63
2021/12/10 03:12:00;;;;;;;32.38;22.30;;;;;;;2.78;90.84;99787.47;1993209;29;35354;-62
2021/12/10 03:13:03;;;;;;;28.13;20.27;;;;;;;2.80;91.37;99788.34;1992955;29;45620;-63
2021/12/10 03:14:10;;;;;;;30.65;20.73;;;;;;;2.79;91.22;99784.81;1992983;29;44736;-62
2021/12/10 03:15:18;;;;;;;31.85;20.80;;;;;;;2.79;90.77;99776.03;1992913;29;43378;-63
2021/12/10 03:16:21;;;;;;;30.33;21.55;;;;;;;2.76;90.82;99774.28;1992748;29;42939;-62
2021/12/10 03:17:28;;;;;;;31.17;20.65;;;;;;;2.77;91.08;99775.19;1993539;29;27385;-62
2021/12/10 03:18:30;;;;;;;27.70;19.40;;;;;;;2.75;90.96;99771.69;1992908;29;45050;-62
2021/12/10 03:19:32;;;;;;;31.42;20.90;;;;;;;2.75;91.03;99774.31;1994367;29;45341;-63
2021/12/10 03:20:34;;;;;;;31.00;20.83;;;;;;;2.75;91.00;99769.03;1994649;29;43324;-63
2021/12/10 03:21:38;;;;;;;31.83;22.00;;;;;;;2.74;91.04;99767.28;1994386;29;43851;-63
2021/12/10 03:22:44;;;;;;;28.45;19.65;;;;;;;2.75;91.11;99772.53;1994139;29;46270;-62
2021/12/10 03:23:49;;;;;;;29.33;19.83;;;;;;;2.73;90.94;99769.03;1993470;29;41958;-62
2021/12/10 03:24:53;;;;;;;27.25;17.88;;;;;;;2.73;91.04;99766.41;1993236;29;38033;-63
2021/12/10 03:25:54;;;;;;;26.38;19.92;;;;;;;2.73;90.60;99760.22;1993809;29;46184;-62
2021/12/10 03:27:03;;;;;;;28.80;19.60;;;;;;;2.73;91.05;99770.78;1994946;29;43369;-62
2021/12/10 03:28:06;;;;;;;27.85;18.63;;;;;;;2.74;91.03;99762.84;1993604;29;44951;-62
2021/12/10 03:29:08;;;;;;;28.58;19.50;;;;;;;2.73;90.68;99765.50;1986442;29;44423;-62
2021/12/10 03:30:19;;;;;;;28.67;19.35;;;;;;;2.73;90.72;99757.56;1986711;29;43091;-62
2021/12/10 03:31:24;;;;;;;26.30;18.48;;;;;;;2.73;90.94;99757.56;1994649;29;44981;-62
2021/12/10 03:32:30;;;;;;;28.65;19.80;;;;;;;2.73;90.92;99754.94;1994136;29;45750;-62
2021/12/10 03:33:33;;;;;;;27.67;19.90;;;;;;;2.72;90.64;99755.84;1994298;29;44911;-62
2021/12/10 03:34:36;;;;;;;29.98;19.00;;;;;;;2.73;90.95;99755.81;1994145;29;44430;-63
2021/12/10 03:35:48;;;;;;;23.40;17.83;;;;;;;2.72;90.89;99747.91;1994447;29;45476;-62
2021/12/10 03:36:52;;;;;;;26.75;18.85;;;;;;;2.72;90.69;99748.78;1993570;29;46072;-63
2021/12/10 03:37:58;;;;;;;29.23;18.48;;;;;;;2.72;90.54;99753.19;1994273;29;29571;-63
2021/12/10 03:39:00;;;;;;;29.17;19.45;;;;;;;2.70;90.54;99745.28;1993937;29;44025;-62
2021/12/10 03:40:06;;;;;;;25.75;18.17;;;;;;;2.70;90.53;99737.34;1994100;29;42447;-62
2021/12/10 03:41:12;;;;;;;26.58;17.77;;;;;;;2.68;90.72;99737.38;1993270;29;45550;-62
2021/12/10 03:42:15;;;;;;;25.25;17.42;;;;;;;2.70;90.61;99733.84;1992482;29;44043;-62
2021/12/10 03:43:19;;;;;;;26.98;18.55;;;;;;;2.67;90.55;99732.09;1994310;29;42869;-62
2021/12/10 03:44:24;;;;;;;24.25;16.65;;;;;;;2.67;90.48;99740.00;1993853;29;34096;-62
2021/12/10 03:45:32;;;;;;;24.00;16.73;;;;;;;2.68;90.62;99732.06;1986433;29;44331;-63
2021/12/10 03:46:34;;;;;;;25.00;17.98;;;;;;;2.69;90.69;99735.59;1987196;29;42897;-62
2021/12/10 03:47:36;;;;;;;25.60;17.45;;;;;;;2.67;90.36;99738.28;1994377;29;46533;-62
2021/12/10 03:48:42;;;;;;;27.98;18.17;;;;;;;2.66;90.55;99739.16;1995252;29;20881;-64
2021/12/10 03:49:44;;;;;;;23.25;17.60;;;;;;;2.66;90.66;99741.78;1994235;29;44344;-62
2021/12/10 03:50:48;;;;;;;25.40;17.63;;;;;;;2.64;90.60;99738.28;1994740;29;30374;-62
2021/12/10 03:51:49;;;;;;;26.42;17.73;;;;;;;2.65;90.77;99733.88;1994432;29;44197;-62
2021/12/10 03:52:54;;;;;;;22.85;16.85;;;;;;;2.66;91.02;99739.16;1993668;29;46329;-62
2021/12/10 03:53:56;;;;;;;28.77;18.15;;;;;;;2.64;90.88;99735.66;1993645;29;44751;-62
2021/12/10 03:55:00;;;;;;;26.20;17.63;;;;;;;2.63;90.43;99738.31;1994018;29;44074;-62
2021/12/10 03:56:12;;;;;;;25.98;17.65;;;;;;;2.62;90.65;99737.44;1994377;29;32447;-62
2021/12/10 03:57:14;;;;;;;27.98;18.05;;;;;;;2.61;90.87;99740.97;1993776;29;44914;-62
2021/12/10 03:58:18;;;;;;;21.45;16.60;;;;;;;2.62;90.47;99742.72;1993406;29;45089;-62
2021/12/10 03:59:23;;;;;;;22.05;17.17;;;;;;;2.61;90.83;99742.72;1993399;29;43384;-62
2021/12/10 04:00:31;;;;;;;22.48;17.10;;;;;;;2.61;90.34;99735.69;1985736;29;45322;-62
2021/12/10 04:01:41;;;;;;;21.60;16.27;;;;;;;2.60;90.80;99744.50;1988021;29;26916;-63
2021/12/10 04:02:43;;;;;;;22.90;16.57;;;;;;;2.61;90.45;99746.25;1994032;29;46619;-62
2021/12/10 04:03:49;;;;;;;21.65;15.90;;;;;;;2.59;90.84;99737.47;1994043;29;46726;-62
2021/12/10 04:04:54;;;;;;;22.10;17.27;;;;;;;2.59;90.73;99740.09;1986745;29;36856;-62
2021/12/10 04:05:56;;;;;;;25.02;17.52;;;;;;;2.58;90.69;99738.34;1988951;29;44568;-62
2021/12/10 04:07:07;;;;;;;23.08;17.60;;;;;;;2.57;90.48;99733.97;1986809;29;45338;-62
2021/12/10 04:08:10;;;;;;;25.80;17.42;;;;;;;2.58;90.66;99740.13;1986019;29;42419;-62
2021/12/10 04:09:14;;;;;;;23.50;16.88;;;;;;;2.58;90.86;99737.47;1971148;30;45375;-62
2021/12/10 04:10:22;;;;;;;23.83;17.45;;;;;;;2.59;90.19;99736.59;1971033;29;44650;-62
2021/12/10 04:11:24;;;;;;;23.75;15.40;;;;;;;2.58;90.46;99729.53;1986284;29;42914;-62
2021/12/10 04:12:26;;;;;;;23.13;16.52;;;;;;;2.59;90.52;99726.88;1986306;29;46280;-62
2021/12/10 04:13:28;;;;;;;22.98;16.23;;;;;;;2.58;90.66;99726.91;1986926;29;35979;-63
2021/12/10 04:14:30;;;;;;;19.85;14.88;;;;;;;2.58;90.88;99716.34;1985794;29;45984;-63
2021/12/10 04:15:35;;;;;;;24.00;16.13;;;;;;;2.58;90.14;99717.19;1986414;29;45728;-63
2021/12/10 04:16:37;;;;;;;20.67;15.80;;;;;;;2.58;90.46;99718.97;1986112;29;43306;-64
2021/12/10 04:17:43;;;;;;;21.80;16.13;;;;;;;2.57;90.56;99720.75;1986587;29;44942;-63
2021/12/10 04:18:49;;;;;;;20.77;15.55;;;;;;;2.55;90.33;99711.97;1986983;29;25184;-63
2021/12/10 04:19:52;;;;;;;22.13;15.57;;;;;;;2.56;90.47;99719.00;1986168;29;42784;-63
2021/12/10 04:20:54;;;;;;;20.65;14.90;;;;;;;2.55;90.43;99719.91;1986369;29;45968;-63
2021/12/10 04:22:00;;;;;;;21.92;15.63;;;;;;;2.55;90.50;99714.63;1987230;29;20055;-63
2021/12/10 04:23:06;;;;;;;22.45;16.63;;;;;;;2.55;90.73;99713.72;1985903;29;44994;-63
2021/12/10 04:24:16;;;;;;;22.58;15.90;;;;;;;2.56;90.54;99716.34;1978254;29;43145;-64
2021/12/10 04:25:24;;;;;;;23.67;16.58;;;;;;;2.54;90.27;99710.22;1979689;29;36630;-63
2021/12/10 04:26:28;;;;;;;22.88;15.70;;;;;;;2.56;90.90;99720.75;1987552;29;44694;-63
2021/12/10 04:27:30;;;;;;;22.60;15.38;;;;;;;2.55;90.38;99714.63;1986578;29;28888;-63
2021/12/10 04:28:33;;;;;;;21.30;14.40;;;;;;;2.56;90.42;99710.19;1985503;29;46421;-63
2021/12/10 04:29:35;;;;;;;19.80;14.65;;;;;;;2.56;90.86;99710.19;1977931;29;44958;-63
2021/12/10 04:30:40;;;;;;;19.35;15.38;;;;;;;2.54;89.96;99707.56;1978273;29;45510;-63
2021/12/10 04:31:42;;;;;;;23.95;15.93;;;;;;;2.54;90.65;99704.91;1986295;29;44597;-63
2021/12/10 04:32:45;;;;;;;23.13;15.65;;;;;;;2.53;90.70;99705.84;1986122;29;42316;-63
2021/12/10 04:33:46;;;;;;;20.42;15.98;;;;;;;2.53;90.83;99697.91;1986924;29;20047;-63
2021/12/10 04:34:52;;;;;;;22.67;14.57;;;;;;;2.54;90.61;99706.69;1994692;29;20167;-63
2021/12/10 04:35:57;;;;;;;20.15;15.23;;;;;;;2.55;90.40;99709.31;1994084;29;45152;-63
2021/12/10 04:37:04;;;;;;;19.58;14.45;;;;;;;2.53;90.67;99705.84;1994060;29;44996;-63
2021/12/10 04:38:06;;;;;;;22.70;16.20;;;;;;;2.52;90.64;99708.47;1993088;29;43367;-63
2021/12/10 04:39:08;;;;;;;21.63;15.45;;;;;;;2.52;90.63;99712.00;1994323;29;24134;-63
2021/12/10 04:40:16;;;;;;;21.25;14.82;;;;;;;2.51;90.52;99704.94;1992179;29;43721;-62
2021/12/10 04:41:19;;;;;;;19.85;14.43;;;;;;;2.53;90.50;99711.13;1993981;29;45492;-63
2021/12/10 04:42:24;;;;;;;20.08;14.68;;;;;;;2.51;90.80;99712.00;1993754;29;46055;-62
2021/12/10 04:43:28;;;;;;;18.92;14.48;;;;;;;2.50;90.61;99704.97;1994588;29;21617;-63
2021/12/10 04:44:30;;;;;;;20.00;14.95;;;;;;;2.51;90.40;99714.66;1994395;29;44359;-62
2021/12/10 04:45:31;;;;;;;20.13;14.50;;;;;;;2.49;90.81;99704.09;1993697;29;46196;-62
2021/12/10 04:46:35;;;;;;;20.98;15.32;;;;;;;2.48;90.34;99705.88;1985444;29;45447;-62
2021/12/10 04:47:36;;;;;;;21.42;14.73;;;;;;;2.48;90.98;99697.06;1978249;29;44905;-62
2021/12/10 04:48:55;;;;;;;21.30;14.55;;;;;;;2.47;90.71;99709.38;1978454;29;43653;-62
2021/12/10 04:49:57;;;;;;;18.00;14.43;;;;;;;2.46;90.46;99704.16;1994000;29;35140;-62
2021/12/10 04:51:00;;;;;;;21.42;13.52;;;;;;;2.48;90.21;99707.63;1985800;29;44436;-62
2021/12/10 04:52:07;;;;;;;19.52;13.68;;;;;;;2.50;90.41;99707.63;1986432;29;31888;-62
2021/12/10 04:53:14;;;;;;;19.88;15.52;;;;;;;2.48;90.38;99707.63;1993290;29;44725;-64
2021/12/10 22:06:17;;;;;;;19.50;10.55;;;;;;;2.09;86.23;100266.84;2451211;23;20121;31
2021/12/10 22:08:05;;;;;;;22.30;12.48;;;;;;;2.11;86.63;100278.28;1983603;29;27553;-61
2021/12/10 22:09:16;;;;;;;20.67;12.13;;;;;;;2.06;87.02;100280.94;1969515;30;45256;-60
2021/12/10 22:10:27;;;;;;;19.95;11.80;;;;;;;2.06;87.17;100280.03;1980092;29;32824;-61
2021/12/10 22:11:58;;;;;;;18.85;12.15;;;;;;;2.06;86.75;100285.31;1984619;29;46826;-61
2021/12/10 22:13:22;;;;;;;18.63;11.73;;;;;;;2.05;87.52;100294.13;1985931;29;37832;-61
2021/12/10 22:15:12;;;;;;;21.35;12.27;;;;;;;2.05;87.35;100295.00;1978185;29;33863;-61
2021/12/10 22:16:20;;;;;;;;;;;;;;;2.03;87.35;100294.13;1986976;29;20051;-60
2021/12/10 22:17:29;;;;;;;20.85;11.65;;;;;;;2.03;87.60;100301.19;1986038;29;43273;-60
2021/12/10 22:19:15;;;;;;;19.83;12.57;;;;;;;2.03;87.13;100301.19;1978183;29;20032;-61
2021/12/10 22:20:29;;;;;;;18.02;10.98;;;;;;;2.00;87.67;100303.81;1984893;29;35508;-61
2021/12/10 22:21:40;;;;;;;24.98;12.57;;;;;;;2.01;87.77;100310.81;1977897;29;43173;-60
2021/12/10 22:22:43;;;;;;;20.42;11.82;;;;;;;2.00;87.16;100314.38;1980382;29;44377;-60
2021/12/10 22:23:59;;;;;;;23.63;13.30;;;;;;;2.02;87.13;100312.59;1985115;29;44430;-61
2021/12/10 22:25:22;;;;;;;23.98;13.35;;;;;;;2.01;87.66;100319.66;1979567;29;31121;-61
2021/12/10 22:26:24;;;;;;;23.08;12.70;;;;;;;2.01;87.27;100313.47;1981727;29;43954;-61
2021/12/10 22:27:31;;;;;;;26.02;12.90;;;;;;;2.01;87.50;100318.75;1985947;29;44457;-60
2021/12/10 22:28:50;;;;;;;19.65;12.80;;;;;;;2.01;86.90;100317.00;1985649;29;44107;-61
2021/12/10 22:29:59;;;;;;;23.02;13.25;;;;;;;2.01;87.61;100319.66;1986197;29;35824;-60